createdAt,value
2018-06-09T00:00:09.087Z,3.53
2018-06-09T00:02:36.488Z,3.87
2018-06-09T00:05:04.540Z,3.73
2018-06-09T00:07:31.982Z,3.73
2018-06-09T00:09:59.713Z,4.13
2018-06-09T00:12:31.292Z,3.40
2018-06-09T00:15:02.343Z,3.63
2018-06-09T00:17:29.936Z,3.67
2018-06-09T00:19:57.278Z,3.27
2018-06-09T00:22:24.630Z,3.67
2018-06-09T00:24:52.171Z,3.73
2018-06-09T00:27:19.469Z,4.30
2018-06-09T00:29:46.825Z,4.07
2018-06-09T00:32:14.153Z,3.60
2018-06-09T00:34:42.034Z,3.87
2018-06-09T00:37:09.327Z,3.87
2018-06-09T00:39:36.638Z,4.63
2018-06-09T00:42:03.981Z,3.73
2018-06-09T00:44:31.271Z,3.60
2018-06-09T00:46:58.704Z,3.87
2018-06-09T00:49:26.059Z,3.73
2018-06-09T00:51:53.659Z,3.60
2018-06-09T00:54:21.072Z,4.07
2018-06-09T00:56:48.351Z,4.27
2018-06-09T00:59:15.681Z,3.67
2018-06-09T01:01:42.999Z,3.70
2018-06-09T01:04:10.307Z,3.87
2018-06-09T01:06:37.597Z,4.10
2018-06-09T01:09:11.877Z,4.10
2018-06-09T01:11:40.453Z,4.30
2018-06-09T01:14:07.751Z,4.20
2018-06-09T01:16:35.387Z,4.47
2018-06-09T01:19:04.543Z,4.43
2018-06-09T01:21:32.797Z,4.73
2018-06-09T01:24:01.783Z,4.60
2018-06-09T01:26:29.928Z,4.90
2018-06-09T01:28:58.443Z,4.53
2018-06-09T01:31:25.740Z,4.53
2018-06-09T01:33:53.300Z,5.23
2018-06-09T01:36:20.780Z,4.60
2018-06-09T01:38:48.159Z,4.77
2018-06-09T01:41:15.814Z,5.10
2018-06-09T01:43:43.133Z,5.20
2018-06-09T01:46:10.625Z,5.13
2018-06-09T01:48:37.915Z,5.07
2018-06-09T01:51:05.380Z,4.90
2018-06-09T01:53:33.306Z,4.43
2018-06-09T01:56:01.743Z,5.03
2018-06-09T01:58:29.014Z,4.23
2018-06-09T02:00:56.274Z,4.40
2018-06-09T02:03:24.590Z,4.63
2018-06-09T02:05:51.933Z,3.93
2018-06-09T02:08:19.603Z,3.80
2018-06-09T02:10:47.644Z,3.93
2018-06-09T02:13:14.974Z,4.73
2018-06-09T02:15:43.384Z,3.93
2018-06-09T02:18:11.855Z,4.83
2018-06-09T02:20:39.179Z,4.87
2018-06-09T02:23:06.486Z,4.80
2018-06-09T02:25:33.848Z,4.97
2018-06-09T02:28:01.379Z,5.47
2018-06-09T02:30:30.822Z,5.50
2018-06-09T02:32:58.231Z,6.00
2018-06-09T02:35:26.897Z,6.10
2018-06-09T02:37:54.541Z,5.87
2018-06-09T02:40:21.819Z,6.27
2018-06-09T02:42:49.275Z,6.50
2018-06-09T02:45:16.563Z,6.03
2018-06-09T02:47:43.962Z,5.60
2018-06-09T02:50:11.227Z,5.27
2018-06-09T02:52:38.595Z,6.73
2018-06-09T02:55:06.058Z,6.67
2018-06-09T02:57:33.310Z,6.30
2018-06-09T03:00:00.648Z,7.30
2018-06-09T03:02:29.181Z,7.00
2018-06-09T03:04:57.343Z,7.70
2018-06-09T03:07:24.675Z,7.37
2018-06-09T03:09:52.021Z,8.10
2018-06-09T03:12:19.321Z,7.50
2018-06-09T03:14:46.658Z,8.67
2018-06-09T03:17:13.946Z,7.53
2018-06-09T03:19:41.331Z,9.37
2018-06-09T03:22:08.738Z,9.40
2018-06-09T03:24:36.061Z,9.70
2018-06-09T03:27:03.996Z,9.07
2018-06-09T03:29:31.246Z,10.50
2018-06-09T03:31:58.646Z,10.70
2018-06-09T03:34:25.958Z,10.97
2018-06-09T03:36:53.230Z,11.93
2018-06-09T03:39:20.533Z,12.73
2018-06-09T03:41:47.773Z,12.27
2018-06-09T03:44:15.197Z,11.70
2018-06-09T03:46:42.439Z,11.53
2018-06-09T03:49:09.701Z,11.63
2018-06-09T03:51:36.974Z,11.53
2018-06-09T03:54:04.493Z,10.50
2018-06-09T03:56:31.917Z,11.50
2018-06-09T03:58:59.463Z,9.60
2018-06-09T04:01:26.838Z,9.27
2018-06-09T04:03:54.093Z,8.87
2018-06-09T04:06:22.247Z,8.57
2018-06-09T04:08:49.807Z,7.83
2018-06-09T04:11:17.106Z,9.13
2018-06-09T04:13:44.372Z,8.27
2018-06-09T04:16:11.628Z,7.27
2018-06-09T04:18:38.925Z,8.00
2018-06-09T04:21:06.195Z,7.23
2018-06-09T04:23:33.454Z,7.87
2018-06-09T04:26:00.706Z,7.40
2018-06-09T04:28:28.610Z,7.63
2018-06-09T04:30:55.862Z,8.13
2018-06-09T04:33:23.121Z,6.70
2018-06-09T04:35:50.416Z,7.73
2018-06-09T04:38:17.965Z,7.70
2018-06-09T04:40:45.217Z,7.87
2018-06-09T04:43:12.613Z,8.00
2018-06-09T04:45:39.863Z,8.03
2018-06-09T04:48:07.126Z,7.70
2018-06-09T04:50:34.422Z,8.33
2018-06-09T04:53:01.690Z,7.77
2018-06-09T04:55:29.092Z,7.23
2018-06-09T04:57:56.373Z,7.70
2018-06-09T05:00:23.665Z,7.20
2018-06-09T05:02:50.937Z,7.50
2018-06-09T05:05:18.216Z,6.93
2018-06-09T05:07:45.469Z,6.53
2018-06-09T05:10:12.730Z,6.43
2018-06-09T05:12:40.003Z,6.90
2018-06-09T05:15:07.465Z,7.93
2018-06-09T05:17:34.856Z,7.43
2018-06-09T05:20:02.134Z,7.37
2018-06-09T05:22:29.482Z,6.77
2018-06-09T05:24:56.828Z,6.90
2018-06-09T05:27:24.126Z,6.67
2018-06-09T05:29:51.396Z,7.07
2018-06-09T05:32:18.690Z,7.27
2018-06-09T05:34:47.016Z,6.37
2018-06-09T05:37:14.305Z,8.53
2018-06-09T05:39:41.559Z,6.20
2018-06-09T05:42:08.845Z,6.30
2018-06-09T05:44:36.089Z,5.93
2018-06-09T05:47:03.758Z,7.10
2018-06-09T05:49:31.172Z,6.47
2018-06-09T05:51:58.448Z,6.17
2018-06-09T05:54:25.760Z,6.00
2018-06-09T05:56:53.027Z,6.37
2018-06-09T05:59:20.303Z,6.37
2018-06-09T06:01:47.583Z,5.80
2018-06-09T06:04:14.869Z,6.07
2018-06-09T06:06:42.176Z,6.07
2018-06-09T06:09:09.645Z,6.00
2018-06-09T06:11:37.034Z,5.53
2018-06-09T06:14:04.392Z,4.90
2018-06-09T06:16:31.721Z,5.53
2018-06-09T06:18:58.979Z,5.93
2018-06-09T06:21:26.315Z,5.27
2018-06-09T06:23:53.614Z,6.10
2018-06-09T06:26:20.894Z,5.67
2018-06-09T06:28:48.247Z,5.40
2018-06-09T06:31:15.586Z,5.10
2018-06-09T06:33:42.893Z,5.10
2018-06-09T06:36:10.351Z,5.40
2018-06-09T06:38:37.646Z,5.07
2018-06-09T06:41:05.203Z,5.73
2018-06-09T06:43:32.602Z,5.00
2018-06-09T06:45:59.996Z,5.10
2018-06-09T06:48:27.388Z,5.10
2018-06-09T06:50:54.770Z,5.63
2018-06-09T06:53:22.051Z,5.87
2018-06-09T06:55:49.785Z,5.73
2018-06-09T06:58:17.110Z,5.77
2018-06-09T07:00:44.402Z,5.37
2018-06-09T07:03:11.719Z,6.27
2018-06-09T07:05:39.140Z,6.03
2018-06-09T07:08:06.461Z,6.67
2018-06-09T07:10:33.880Z,6.80
2018-06-09T07:13:01.796Z,7.70
2018-06-09T07:15:29.121Z,6.67
2018-06-09T07:17:56.452Z,6.33
2018-06-09T07:20:23.744Z,6.40
2018-06-09T07:22:51.078Z,6.33
2018-06-09T07:25:18.337Z,6.50
2018-06-09T07:27:46.456Z,6.77
2018-06-09T07:30:13.866Z,6.07
2018-06-09T07:32:41.479Z,5.87
2018-06-09T07:35:08.930Z,6.30
2018-06-09T07:37:36.367Z,6.90
2018-06-09T07:40:03.674Z,6.23
2018-06-09T07:42:31.098Z,7.87
2018-06-09T07:44:58.545Z,7.30
2018-06-09T07:47:25.833Z,7.63
2018-06-09T07:49:53.218Z,7.77
2018-06-09T07:52:20.524Z,7.93
2018-06-09T07:54:48.729Z,7.87
2018-06-09T07:57:16.062Z,7.97
2018-06-09T07:59:43.408Z,8.07
2018-06-09T08:02:10.701Z,7.97
2018-06-09T08:04:38.022Z,8.03
2018-06-09T08:07:05.389Z,8.13
2018-06-09T08:09:32.673Z,9.53
2018-06-09T08:12:00.078Z,8.80
2018-06-09T08:14:27.484Z,9.03
2018-06-09T08:16:54.835Z,8.70
2018-06-09T08:19:22.166Z,9.17
2018-06-09T08:21:49.687Z,9.70
2018-06-09T08:24:20.462Z,9.83
2018-06-09T08:26:47.893Z,10.13
2018-06-09T08:29:15.305Z,11.20
2018-06-09T08:31:42.653Z,10.17
2018-06-09T08:34:10.019Z,10.20
2018-06-09T08:36:37.348Z,10.93
2018-06-09T08:39:06.085Z,10.50
2018-06-09T08:41:33.378Z,10.70
2018-06-09T08:44:00.612Z,12.83
2018-06-09T08:46:27.954Z,10.77
2018-06-09T08:48:55.462Z,10.10
2018-06-09T08:51:22.804Z,10.17
2018-06-09T08:53:50.283Z,10.97
2018-06-09T08:56:17.639Z,10.00
2018-06-09T08:58:44.940Z,10.27
2018-06-09T09:01:12.214Z,10.77
2018-06-09T09:03:39.772Z,9.77
2018-06-09T09:06:07.060Z,10.97
2018-06-09T09:08:34.508Z,10.93
2018-06-09T09:11:01.977Z,9.70
2018-06-09T09:13:29.265Z,9.47
2018-06-09T09:15:56.824Z,9.60
2018-06-09T09:18:24.176Z,9.47
2018-06-09T09:20:51.610Z,8.73
2018-06-09T09:23:19.442Z,8.40
2018-06-09T09:25:46.695Z,8.73
2018-06-09T09:28:14.227Z,9.60
2018-06-09T09:30:42.015Z,9.70
2018-06-09T09:33:09.486Z,9.30
2018-06-09T09:35:37.496Z,9.83
2018-06-09T09:38:06.279Z,9.27
2018-06-09T09:40:33.903Z,10.10
2018-06-09T09:43:04.542Z,9.20
2018-06-09T09:45:31.933Z,8.93
2018-06-09T09:47:59.769Z,8.60
2018-06-09T09:50:29.897Z,8.77
2018-06-09T09:52:57.470Z,8.30
2018-06-09T09:55:24.924Z,8.77
2018-06-09T09:58:04.204Z,8.30
2018-06-09T10:00:37.413Z,7.23
2018-06-09T10:03:05.512Z,8.00
2018-06-09T10:05:32.960Z,7.80
2018-06-09T10:08:00.506Z,9.57
2018-06-09T10:10:28.033Z,8.40
2018-06-09T10:12:55.548Z,8.17
2018-06-09T10:15:22.903Z,8.27
2018-06-09T10:17:50.225Z,8.03
2018-06-09T10:20:18.506Z,7.67
2018-06-09T10:22:45.805Z,8.00
2018-06-09T10:25:13.185Z,7.63
2018-06-09T10:27:40.660Z,8.00
2018-06-09T10:30:08.325Z,8.40
2018-06-09T10:32:38.645Z,8.17
2018-06-09T10:35:06.239Z,7.83
2018-06-09T10:37:33.733Z,7.20
2018-06-09T10:40:01.167Z,7.30
2018-06-09T10:42:28.597Z,8.13
2018-06-09T10:44:57.218Z,8.70
2018-06-09T10:47:24.572Z,7.83
2018-06-09T10:49:51.935Z,7.50
2018-06-09T10:52:19.502Z,8.57
2018-06-09T10:54:46.865Z,9.47
2018-06-09T10:57:14.215Z,8.03
2018-06-09T10:59:41.663Z,7.67
2018-06-09T11:02:08.996Z,7.17
2018-06-09T11:04:36.402Z,7.80
2018-06-09T11:07:04.142Z,6.73
2018-06-09T11:09:31.962Z,7.53
2018-06-09T11:11:59.597Z,7.20
2018-06-09T11:14:27.289Z,7.37
2018-06-09T11:16:54.709Z,7.70
2018-06-09T11:19:22.023Z,7.80
2018-06-09T11:21:49.483Z,7.60
2018-06-09T11:24:17.767Z,7.53
2018-06-09T11:26:45.549Z,8.00
2018-06-09T11:29:15.787Z,7.43
2018-06-09T11:31:43.252Z,10.23
2018-06-09T11:34:10.720Z,8.00
2018-06-09T11:36:38.162Z,7.57
2018-06-09T11:39:07.502Z,7.20
2018-06-09T11:41:35.591Z,8.03
2018-06-09T11:44:03.791Z,8.10
2018-06-09T11:46:31.711Z,7.30
2018-06-09T11:48:59.537Z,7.40
2018-06-09T11:51:28.463Z,7.50
2018-06-09T11:53:55.989Z,7.53
2018-06-09T11:56:23.502Z,7.30
2018-06-09T11:58:51.198Z,6.73
2018-06-09T12:01:18.573Z,7.20
2018-06-09T12:03:46.828Z,7.17
2018-06-09T12:06:14.245Z,6.53
2018-06-09T12:08:41.580Z,7.33
2018-06-09T12:11:09.064Z,7.30
2018-06-09T12:13:36.458Z,6.60
2018-06-09T12:16:03.980Z,6.23
2018-06-09T12:18:31.938Z,6.72
2018-06-09T12:20:59.422Z,6.07
2018-06-09T12:23:26.791Z,6.10
2018-06-09T12:25:54.850Z,6.28
2018-06-09T12:28:22.383Z,6.33
2018-06-09T12:30:50.721Z,6.30
2018-06-09T12:33:18.391Z,6.07
2018-06-09T12:35:47.757Z,6.50
2018-06-09T12:38:16.003Z,7.30
2018-06-09T12:40:44.163Z,7.00
2018-06-09T12:43:12.173Z,6.50
2018-06-09T12:45:40.799Z,7.00
2018-06-09T12:48:08.778Z,6.50
2018-06-09T12:50:36.960Z,6.73
2018-06-09T12:53:07.285Z,6.45
2018-06-09T12:55:36.334Z,6.53
2018-06-09T12:58:04.358Z,5.53
2018-06-09T13:00:31.795Z,6.28
2018-06-09T13:02:59.349Z,6.50
2018-06-09T13:05:26.809Z,5.90
2018-06-09T13:07:56.521Z,6.10
2018-06-09T13:10:24.047Z,6.22
2018-06-09T13:12:51.423Z,6.35
2018-06-09T13:15:18.913Z,6.45
2018-06-09T13:17:46.322Z,6.62
2018-06-09T13:20:13.906Z,6.17
2018-06-09T13:22:41.389Z,7.00
2018-06-09T13:25:09.058Z,5.97
2018-06-09T13:27:36.522Z,6.37
2018-06-09T13:30:03.981Z,5.97
2018-06-09T13:32:31.421Z,6.85
2018-06-09T13:34:58.898Z,7.45
2018-06-09T13:37:26.509Z,5.95
2018-06-09T13:39:55.426Z,6.97
2018-06-09T13:42:23.259Z,5.87
2018-06-09T13:44:50.903Z,6.20
2018-06-09T13:47:20.184Z,5.50
2018-06-09T13:49:48.342Z,5.92
2018-06-09T13:52:15.913Z,8.98
2018-06-09T13:54:43.688Z,6.37
2018-06-09T13:57:11.030Z,8.33
2018-06-09T13:59:40.621Z,11.48
2018-06-09T14:02:08.565Z,6.40
2018-06-09T14:04:35.943Z,6.50
2018-06-09T14:07:03.410Z,5.75
2018-06-09T14:09:31.650Z,6.37
2018-06-09T14:11:59.266Z,6.25
2018-06-09T14:14:29.882Z,6.28
2018-06-09T14:16:57.228Z,5.47
2018-06-09T14:19:24.616Z,5.72
2018-06-09T14:21:51.996Z,5.42
2018-06-09T14:24:19.361Z,5.37
2018-06-09T14:26:46.770Z,5.70
2018-06-09T14:29:14.182Z,7.85
2018-06-09T14:31:41.537Z,7.00
2018-06-09T14:34:08.986Z,5.28
2018-06-09T14:36:36.500Z,5.08
2018-06-09T14:39:06.370Z,5.35
2018-06-09T14:41:33.756Z,5.47
2018-06-09T14:44:01.338Z,6.25
2018-06-09T14:46:28.844Z,5.80
2018-06-09T14:48:56.383Z,5.00
2018-06-09T14:51:24.021Z,5.08
2018-06-09T14:53:51.693Z,5.05
2018-06-09T14:56:19.130Z,5.80
2018-06-09T14:58:46.629Z,5.33
2018-06-09T15:01:14.114Z,4.87
2018-06-09T15:03:41.456Z,5.08
2018-06-09T15:06:10.262Z,5.20
2018-06-09T15:08:37.675Z,6.60
2018-06-09T15:11:05.086Z,8.10
2018-06-09T15:16:05.791Z,12.90
2018-06-09T15:18:33.209Z,6.83
2018-06-09T15:21:01.057Z,5.05
2018-06-09T15:23:29.098Z,5.72
2018-06-09T15:25:57.706Z,5.45
2018-06-09T15:28:25.180Z,5.65
2018-06-09T15:30:53.091Z,5.33
2018-06-09T15:33:20.654Z,5.42
2018-06-09T15:35:47.986Z,5.33
2018-06-09T15:38:15.659Z,5.65
2018-06-09T15:40:43.009Z,5.42
2018-06-09T15:43:10.373Z,6.20
2018-06-09T15:45:37.651Z,10.68
2018-06-09T15:48:04.969Z,16.95
2018-06-09T15:50:32.635Z,7.20
2018-06-09T15:53:00.951Z,6.53
2018-06-09T15:55:28.330Z,6.72
2018-06-09T15:57:55.633Z,5.50
2018-06-09T16:00:23.145Z,5.15
2018-06-09T16:02:50.564Z,8.05
2018-06-09T16:05:17.902Z,8.25
2018-06-09T16:07:46.983Z,6.47
2018-06-09T16:10:14.357Z,6.55
2018-06-09T16:12:41.754Z,6.40
2018-06-09T16:15:09.499Z,6.57
2018-06-09T16:17:36.970Z,6.10
2018-06-09T16:20:04.313Z,6.67
2018-06-09T16:22:31.666Z,6.70
2018-06-09T16:25:02.601Z,6.25
2018-06-09T16:27:30.578Z,6.87
2018-06-09T16:32:33.797Z,6.90
2018-06-09T16:35:01.277Z,8.87
2018-06-09T16:37:28.706Z,8.20
2018-06-09T16:39:56.032Z,8.43
2018-06-09T16:42:24.837Z,8.23
2018-06-09T16:44:52.220Z,8.30
2018-06-09T16:47:19.963Z,8.60
2018-06-09T16:49:47.653Z,9.50
2018-06-09T16:52:15.391Z,9.67
2018-06-09T16:54:42.780Z,10.30
2018-06-09T16:57:10.286Z,10.40
2018-06-09T16:59:37.742Z,9.57
2018-06-09T17:02:05.724Z,9.40
2018-06-09T17:04:33.378Z,9.80
2018-06-09T17:07:01.008Z,9.83
2018-06-09T17:09:28.432Z,9.77
2018-06-09T17:11:56.043Z,8.40
2018-06-09T17:14:25.045Z,9.03
2018-06-09T17:16:54.344Z,10.63
2018-06-09T17:19:21.926Z,9.70
2018-06-09T17:21:56.874Z,10.73
2018-06-09T17:24:25.627Z,10.63
2018-06-09T17:26:55.816Z,10.73
2018-06-09T17:29:23.859Z,12.73
2018-06-09T17:31:51.717Z,10.47
2018-06-09T17:34:20.345Z,10.20
2018-06-09T17:36:48.465Z,9.07
2018-06-09T17:39:16.455Z,10.10
2018-06-09T17:41:43.795Z,8.93
2018-06-09T17:44:11.266Z,14.50
2018-06-09T17:46:38.846Z,33.43
2018-06-09T17:49:06.246Z,24.07
2018-06-09T17:51:33.979Z,12.90
2018-06-09T17:54:01.376Z,10.30
2018-06-09T17:56:29.379Z,9.67
2018-06-09T17:58:56.767Z,8.33
2018-06-09T18:01:24.665Z,8.30
2018-06-09T18:03:52.745Z,8.23
2018-06-09T18:06:21.050Z,8.57
2018-06-09T18:08:48.339Z,9.07
2018-06-09T18:11:15.690Z,8.95
2018-06-09T18:13:43.187Z,9.47
2018-06-09T18:16:10.907Z,9.27
2018-06-09T18:18:38.314Z,9.18
2018-06-09T18:21:05.622Z,8.93
2018-06-09T18:23:33.012Z,10.93
2018-06-09T18:26:00.435Z,16.03
2018-06-09T18:28:27.784Z,21.63
2018-06-09T18:30:55.429Z,31.13
2018-06-09T18:33:22.910Z,24.57
2018-06-09T18:35:50.323Z,12.93
2018-06-09T18:38:17.699Z,11.50
2018-06-09T18:40:45.212Z,12.90
2018-06-09T18:43:12.824Z,12.87
2018-06-09T18:45:51.938Z,16.83
2018-06-09T18:48:26.344Z,20.40
2018-06-09T18:50:53.899Z,13.67
2018-06-09T18:53:21.287Z,14.07
2018-06-09T18:55:49.162Z,11.53
2018-06-09T18:58:16.984Z,12.37
2018-06-09T19:00:44.948Z,12.23
2018-06-09T19:03:12.662Z,10.23
2018-06-09T19:05:40.156Z,10.10
2018-06-09T19:08:09.680Z,11.90
2018-06-09T19:10:37.650Z,10.30
2018-06-09T19:13:05.696Z,10.70
2018-06-09T19:15:34.958Z,11.03
2018-06-09T19:18:02.971Z,12.07
2018-06-09T19:20:34.139Z,11.33
2018-06-09T19:23:07.312Z,11.20
2018-06-09T19:25:36.307Z,10.50
2018-06-09T19:28:03.721Z,9.57
2018-06-09T19:30:33.318Z,10.17
2018-06-09T19:33:07.574Z,10.83
2018-06-09T19:35:35.904Z,11.53
2018-06-09T19:38:03.354Z,10.37
2018-06-09T19:40:31.934Z,17.67
2018-06-09T19:42:59.436Z,17.03
2018-06-09T19:45:27.888Z,16.23
2018-06-09T19:47:57.315Z,15.93
2018-06-09T19:50:24.723Z,20.67
2018-06-09T19:52:52.009Z,13.80
2018-06-09T19:55:19.488Z,15.17
2018-06-09T19:57:46.924Z,15.43
2018-06-09T20:00:15.188Z,17.43
2018-06-09T20:02:45.456Z,14.83
2018-06-09T20:05:13.185Z,14.37
2018-06-09T20:07:40.770Z,14.03
2018-06-09T20:10:10.237Z,11.57
2018-06-09T20:12:37.792Z,11.37
2018-06-09T20:15:05.293Z,10.83
2018-06-09T20:17:34.630Z,11.37
2018-06-09T20:20:06.044Z,11.13
2018-06-09T20:22:33.641Z,10.60
2018-06-09T20:25:01.138Z,26.23
2018-06-09T20:27:30.406Z,25.17
2018-06-09T20:29:58.413Z,14.10
2018-06-09T20:32:26.675Z,21.10
2018-06-09T20:34:54.399Z,20.10
2018-06-09T20:37:22.165Z,15.70
2018-06-09T20:39:50.779Z,11.63
2018-06-09T20:42:18.418Z,10.87
2018-06-09T20:44:45.914Z,13.57
2018-06-09T20:47:14.380Z,11.57
2018-06-09T20:49:43.678Z,17.73
2018-06-09T20:52:11.280Z,14.23
2018-06-09T20:54:39.664Z,12.17
2018-06-09T20:57:08.013Z,11.60
2018-06-09T20:59:36.993Z,11.33
2018-06-09T21:02:05.545Z,11.57
2018-06-09T21:04:33.331Z,10.97
2018-06-09T21:07:00.991Z,11.57
2018-06-09T21:09:28.317Z,10.70
2018-06-09T21:11:57.280Z,16.93
2018-06-09T21:14:24.743Z,33.40
2018-06-09T21:16:52.662Z,23.37
2018-06-09T21:19:20.549Z,19.90
2018-06-09T21:21:48.710Z,15.30
2018-06-09T21:24:16.244Z,12.50
2018-06-09T21:26:49.844Z,11.27
2018-06-09T21:29:23.335Z,12.53
2018-06-09T21:31:51.755Z,49.73
2018-06-09T21:34:36.367Z,14.97
2018-06-09T21:37:10.626Z,13.47
2018-06-09T21:39:44.817Z,13.10
2018-06-09T21:42:17.765Z,12.53
2018-06-09T21:44:51.064Z,13.50
2018-06-09T21:47:18.351Z,14.70
2018-06-09T21:49:46.886Z,13.33
2018-06-09T21:52:14.231Z,27.50
2018-06-09T21:54:42.925Z,32.90
2018-06-09T21:57:10.330Z,32.13
2018-06-09T21:59:38.377Z,17.93
2018-06-09T22:02:06.771Z,16.00
2018-06-09T22:04:34.415Z,14.23
2018-06-09T22:07:02.450Z,15.10
2018-06-09T22:09:30.084Z,15.00
2018-06-09T22:11:57.496Z,13.83
2018-06-09T22:14:24.907Z,15.73
2018-06-09T22:16:52.379Z,14.93
2018-06-09T22:19:19.960Z,15.97
2018-06-09T22:21:47.503Z,14.80
2018-06-09T22:24:16.454Z,15.43
2018-06-09T22:26:43.906Z,17.10
2018-06-09T22:29:11.414Z,14.97
2018-06-09T22:31:39.200Z,15.20
2018-06-09T22:34:13.429Z,15.07
2018-06-09T22:36:42.884Z,15.23
2018-06-09T22:39:16.519Z,13.90
2018-06-09T22:41:45.171Z,14.97
2018-06-09T22:44:12.478Z,14.10
2018-06-09T22:46:45.015Z,16.03
2018-06-09T22:49:15.228Z,14.70
2018-06-09T22:51:42.781Z,17.30
2018-06-09T22:54:11.256Z,18.10
2018-06-09T22:56:40.523Z,15.73
2018-06-09T22:59:10.293Z,16.43
2018-06-09T23:01:42.994Z,15.23
2018-06-09T23:04:13.728Z,15.73
2018-06-09T23:19:41.116Z,16.10
2018-06-09T23:22:08.551Z,15.27
2018-06-09T23:24:35.952Z,16.63
2018-06-09T23:27:03.426Z,15.00
2018-06-09T23:29:30.771Z,14.67
2018-06-09T23:31:58.142Z,13.83
2018-06-09T23:34:25.545Z,13.13
2018-06-09T23:36:53.189Z,13.10
2018-06-09T23:39:20.519Z,14.33
2018-06-09T23:41:47.967Z,13.50
2018-06-09T23:44:15.664Z,12.67
2018-06-09T23:46:43.186Z,14.20
2018-06-09T23:49:10.528Z,13.40
2018-06-09T23:51:37.821Z,12.93
2018-06-09T23:54:05.426Z,12.90
2018-06-09T23:56:32.877Z,13.50
2018-06-09T23:59:00.165Z,9.90
